San Geronimo, California
Current Conditions -  °F | °C
As of 7:55 AM on Friday 31 Oct 2014 (Local Time) from KDVO Reporting Station
Overcast Overcast  
Wind Chill: 61°   Ceiling: 3700
Heat Index: 61°   Visibility: NA
Dew Point: 57°   Wind: 8mph
Humidity: 88%   Direction: 210°SSW
Pressure: 29.85"   Gusts: NA
Location:  38.01°N, 122.66°W
Report Text: KDVO 311455Z AUTO 21007KT BKN037 BKN050 OVC080 16/14 A2985 RMK AO2
Loading
Personal Weather Stations






























Interactive Weather Map
Tropical Storm Tracking
New forecast layout! Learn more

10-Day Weather Forecast

Advertisements
Track Severe Weather on mobile